createdAt,value
2023-02-02T00:00:42.608Z,6.57
2023-02-02T00:01:47.960Z,6.57
2023-02-02T00:02:50.940Z,5.50
2023-02-02T00:03:55.360Z,6.98
2023-02-02T00:04:58.463Z,6.44
2023-02-02T00:06:03.289Z,6.63
2023-02-02T00:07:06.854Z,6.62
2023-02-02T00:08:10.017Z,6.78
2023-02-02T00:09:14.864Z,6.99
2023-02-02T00:10:18.304Z,6.82
2023-02-02T00:11:21.419Z,6.93
2023-02-02T00:12:24.345Z,8.13
2023-02-02T00:13:27.382Z,7.81
2023-02-02T00:14:30.321Z,7.76
2023-02-02T00:15:33.254Z,8.54
2023-02-02T00:16:44.762Z,8.38
2023-02-02T00:17:47.664Z,8.86
2023-02-02T00:18:50.578Z,8.90
2023-02-02T00:19:53.680Z,10.20
2023-02-02T00:20:56.713Z,9.34
2023-02-02T00:21:59.647Z,9.89
2023-02-02T00:23:03.668Z,9.74
2023-02-02T00:24:08.226Z,9.04
2023-02-02T00:25:11.286Z,8.51
2023-02-02T00:26:14.826Z,8.09
2023-02-02T00:27:18.072Z,7.14
2023-02-02T00:28:21.194Z,7.24
2023-02-02T00:29:29.940Z,6.54
2023-02-02T00:30:32.917Z,7.58
2023-02-02T00:31:36.116Z,6.71
2023-02-02T00:32:40.187Z,6.04
2023-02-02T00:33:47.334Z,6.31
2023-02-02T00:34:50.481Z,7.21
2023-02-02T00:35:53.651Z,6.74
2023-02-02T00:36:56.792Z,6.51
2023-02-02T00:37:59.837Z,6.65
2023-02-02T00:39:03.158Z,6.53
2023-02-02T00:40:07.055Z,6.95
2023-02-02T00:41:10.101Z,6.46
2023-02-02T00:42:13.044Z,6.84
2023-02-02T00:43:16.072Z,6.50
2023-02-02T00:44:37.575Z,6.29
2023-02-02T00:45:40.889Z,6.06
2023-02-02T00:46:43.873Z,5.98
2023-02-02T00:47:48.988Z,6.61
2023-02-02T00:48:51.844Z,6.63
2023-02-02T00:49:54.973Z,6.39
2023-02-02T00:50:58.328Z,6.31
2023-02-02T00:52:01.358Z,6.06
2023-02-02T00:53:04.400Z,6.09
2023-02-02T00:54:07.451Z,6.07
2023-02-02T00:55:11.920Z,6.36
2023-02-02T00:56:15.073Z,5.95
2023-02-02T00:57:18.015Z,6.22
2023-02-02T00:58:21.061Z,6.04
2023-02-02T00:59:24.098Z,5.92
2023-02-02T01:00:27.805Z,6.25
2023-02-02T01:01:30.982Z,6.44
2023-02-02T01:02:35.264Z,5.68
2023-02-02T01:03:38.559Z,6.10
2023-02-02T01:04:41.604Z,6.92
2023-02-02T01:05:44.759Z,5.85
2023-02-02T01:06:47.891Z,6.24
2023-02-02T01:07:51.033Z,6.70
2023-02-02T01:08:54.085Z,6.72
2023-02-02T01:09:57.124Z,5.86
2023-02-02T01:11:00.276Z,5.89
2023-02-02T01:12:03.352Z,5.97
2023-02-02T01:13:07.591Z,6.02
2023-02-02T01:14:10.675Z,5.95
2023-02-02T01:15:13.763Z,6.07
2023-02-02T01:16:17.242Z,6.02
2023-02-02T01:17:20.180Z,7.16
2023-02-02T01:18:24.133Z,6.70
2023-02-02T01:19:27.219Z,6.86
2023-02-02T01:20:31.283Z,6.95
2023-02-02T01:21:34.435Z,7.12
2023-02-02T01:22:38.071Z,6.58
2023-02-02T01:23:41.255Z,7.95
2023-02-02T01:24:44.320Z,7.37
2023-02-02T01:25:50.801Z,7.42
2023-02-02T01:26:53.913Z,7.76
2023-02-02T01:27:56.955Z,7.97
2023-02-02T01:28:59.898Z,8.34
2023-02-02T01:30:03.468Z,9.56
2023-02-02T01:31:15.805Z,8.87
2023-02-02T01:32:18.864Z,9.33
2023-02-02T01:33:22.601Z,10.03
2023-02-02T01:34:25.760Z,10.56
2023-02-02T01:35:29.530Z,9.92
2023-02-02T01:36:33.001Z,11.71
2023-02-02T01:37:36.238Z,10.71
2023-02-02T01:38:39.715Z,10.49
2023-02-02T01:39:42.759Z,10.96
2023-02-02T01:40:53.763Z,11.36
2023-02-02T01:41:56.837Z,10.93
2023-02-02T01:42:59.916Z,10.15
2023-02-02T01:44:05.958Z,10.43
2023-02-02T01:45:18.129Z,10.47
2023-02-02T01:46:27.206Z,10.99
2023-02-02T01:47:39.295Z,10.51
2023-02-02T01:48:45.816Z,11.12
2023-02-02T01:49:48.850Z,10.54
2023-02-02T01:50:56.177Z,10.90
2023-02-02T01:52:00.553Z,10.25
2023-02-02T01:53:05.909Z,10.48
2023-02-02T01:54:12.550Z,9.41
2023-02-02T01:55:18.708Z,10.53
2023-02-02T01:56:28.379Z,10.24
2023-02-02T01:57:40.937Z,10.37
2023-02-02T01:58:44.903Z,10.44
2023-02-02T01:59:49.532Z,9.79
2023-02-02T02:00:53.437Z,10.68
2023-02-02T02:01:56.857Z,10.96
2023-02-02T02:03:06.129Z,10.71
2023-02-02T02:04:09.311Z,10.33
2023-02-02T02:05:16.294Z,10.70
2023-02-02T02:06:20.363Z,10.07
2023-02-02T02:07:23.605Z,9.97
2023-02-02T02:08:51.440Z,9.76
2023-02-02T02:09:54.706Z,9.72
2023-02-02T02:10:58.554Z,10.34
2023-02-02T02:12:01.695Z,10.89
2023-02-02T02:13:06.032Z,11.39
2023-02-02T02:14:29.452Z,10.32
2023-02-02T02:15:54.455Z,10.94
2023-02-02T02:17:19.271Z,5.86
2023-02-02T02:18:50.831Z,5.81
2023-02-02T02:20:32.290Z,8.12
2023-02-02T02:22:00.982Z,8.59
2023-02-02T02:23:46.802Z,9.30
2023-02-02T02:25:14.727Z,9.71
2023-02-02T02:26:36.105Z,8.63
2023-02-02T02:28:00.944Z,8.83
2023-02-02T02:29:10.604Z,9.13
2023-02-02T02:30:19.908Z,9.29
2023-02-02T02:31:50.341Z,8.67
2023-02-02T02:34:14.072Z,8.48
2023-02-02T02:35:24.190Z,9.10
2023-02-02T02:36:36.921Z,8.72
2023-02-02T02:37:49.510Z,8.48
2023-02-02T02:39:06.233Z,8.45
2023-02-02T02:40:27.856Z,9.30
2023-02-02T02:42:42.129Z,8.94
2023-02-02T02:45:02.464Z,8.65
2023-02-02T02:46:07.455Z,8.93
2023-02-02T02:47:10.894Z,8.95
2023-02-02T02:48:14.122Z,8.98
2023-02-02T02:49:17.356Z,9.07
2023-02-02T02:50:21.734Z,9.16
2023-02-02T02:51:53.319Z,9.32
2023-02-02T02:53:01.805Z,8.19
2023-02-02T02:54:05.120Z,8.86
2023-02-02T02:55:10.582Z,8.77
2023-02-02T02:56:29.488Z,8.65
2023-02-02T02:57:55.403Z,8.21
2023-02-02T02:59:10.850Z,9.08
2023-02-02T03:00:23.370Z,9.03
2023-02-02T03:01:37.638Z,8.59
2023-02-02T03:03:11.257Z,10.00
2023-02-02T03:04:23.596Z,9.31
2023-02-02T03:05:45.290Z,8.88
2023-02-02T03:06:54.756Z,8.93
2023-02-02T03:08:04.420Z,9.74
2023-02-02T03:09:16.934Z,9.77
2023-02-02T03:10:23.556Z,9.83
2023-02-02T03:11:26.736Z,9.32
2023-02-02T03:12:29.877Z,10.43
2023-02-02T03:13:33.607Z,12.14
2023-02-02T03:14:37.346Z,10.06
2023-02-02T03:15:41.912Z,10.25
2023-02-02T03:16:44.940Z,10.19
2023-02-02T03:17:49.460Z,10.00
2023-02-02T03:18:52.485Z,9.95
2023-02-02T03:19:55.422Z,11.09
2023-02-02T03:20:58.861Z,10.68
2023-02-02T03:22:02.139Z,11.11
2023-02-02T03:23:05.054Z,12.03
2023-02-02T03:24:08.056Z,10.73
2023-02-02T03:25:10.976Z,11.00
2023-02-02T03:26:14.546Z,11.31
2023-02-02T03:27:17.484Z,11.76
2023-02-02T03:28:22.659Z,11.21
2023-02-02T03:29:25.634Z,10.62
2023-02-02T03:30:28.701Z,10.85
2023-02-02T03:31:31.725Z,10.99
2023-02-02T03:32:34.803Z,10.43
2023-02-02T03:33:38.386Z,10.10
2023-02-02T03:34:41.316Z,10.52
2023-02-02T03:35:44.264Z,10.73
2023-02-02T03:36:47.411Z,10.74
2023-02-02T03:37:50.472Z,10.70
2023-02-02T03:38:53.391Z,9.56
2023-02-02T03:39:56.335Z,10.32
2023-02-02T03:40:59.490Z,10.77
2023-02-02T03:42:02.535Z,10.61
2023-02-02T03:43:05.675Z,10.26
2023-02-02T03:44:08.736Z,11.91
2023-02-02T03:45:11.864Z,11.11
2023-02-02T03:46:15.224Z,10.54
2023-02-02T03:47:18.203Z,10.93
2023-02-02T03:48:21.170Z,11.62
2023-02-02T03:49:24.114Z,11.43
2023-02-02T03:50:27.290Z,11.25
2023-02-02T03:51:30.352Z,11.71
2023-02-02T03:52:33.286Z,11.42
2023-02-02T03:53:36.258Z,11.74
2023-02-02T03:54:39.316Z,11.81
2023-02-02T03:55:42.367Z,11.97
2023-02-02T03:56:45.432Z,11.66
2023-02-02T03:57:48.471Z,10.96
2023-02-02T03:58:51.400Z,11.69
2023-02-02T03:59:54.364Z,12.12
2023-02-02T04:01:05.464Z,12.00
2023-02-02T04:02:08.494Z,11.62
2023-02-02T04:03:11.716Z,11.47
2023-02-02T04:04:15.103Z,12.33
2023-02-02T04:05:18.174Z,11.71
2023-02-02T04:06:21.626Z,12.96
2023-02-02T04:07:24.605Z,12.05
2023-02-02T04:08:27.929Z,12.23
2023-02-02T04:09:30.888Z,12.31
2023-02-02T04:10:33.873Z,12.11
2023-02-02T04:11:37.490Z,11.90
2023-02-02T04:12:41.526Z,13.03
2023-02-02T04:13:44.575Z,12.89
2023-02-02T04:14:47.516Z,12.29
2023-02-02T04:16:00.613Z,13.15
2023-02-02T04:17:03.682Z,13.07
2023-02-02T04:18:06.592Z,14.13
2023-02-02T04:19:09.622Z,12.58
2023-02-02T04:20:12.906Z,13.32
2023-02-02T04:21:15.921Z,12.84
2023-02-02T04:22:18.871Z,13.00
2023-02-02T04:23:21.950Z,12.69
2023-02-02T04:24:24.891Z,13.30
2023-02-02T04:25:27.946Z,13.40
2023-02-02T04:26:30.901Z,12.89
2023-02-02T04:27:34.095Z,13.31
2023-02-02T04:28:37.123Z,13.48
2023-02-02T04:29:40.048Z,12.64
2023-02-02T04:30:43.235Z,13.01
2023-02-02T04:31:46.290Z,13.36
2023-02-02T04:32:50.899Z,13.49
2023-02-02T04:33:53.968Z,13.11
2023-02-02T04:34:56.904Z,13.36
2023-02-02T04:35:59.850Z,13.39
2023-02-02T04:37:02.995Z,12.12
2023-02-02T04:38:05.920Z,12.15
2023-02-02T04:39:11.047Z,11.89
2023-02-02T04:40:14.548Z,11.27
2023-02-02T04:41:20.626Z,11.97
2023-02-02T04:42:23.603Z,11.96
2023-02-02T04:43:26.645Z,11.51
2023-02-02T04:44:29.682Z,12.06
2023-02-02T04:45:32.805Z,12.41
2023-02-02T04:46:35.772Z,11.88
2023-02-02T04:47:38.704Z,11.84
2023-02-02T04:48:41.674Z,12.29
2023-02-02T04:49:44.627Z,11.57
2023-02-02T04:50:47.659Z,11.93
2023-02-02T04:51:50.701Z,10.83
2023-02-02T04:52:53.577Z,11.29
2023-02-02T04:53:56.497Z,11.83
2023-02-02T04:54:59.603Z,11.35
2023-02-02T04:56:07.801Z,12.44
2023-02-02T04:57:10.765Z,10.89
2023-02-02T04:58:13.698Z,11.27
2023-02-02T04:59:16.611Z,11.66
2023-02-02T05:00:19.933Z,12.04
2023-02-02T05:01:23.263Z,11.16
2023-02-02T05:02:26.320Z,11.63
2023-02-02T05:03:29.222Z,11.53
2023-02-02T05:04:32.274Z,11.84
2023-02-02T05:05:35.478Z,11.56
2023-02-02T05:06:38.675Z,11.79
2023-02-02T05:07:41.619Z,11.90
2023-02-02T05:08:45.266Z,12.14
2023-02-02T05:09:48.255Z,11.52
2023-02-02T05:10:51.437Z,11.28
2023-02-02T05:11:54.519Z,11.58
2023-02-02T05:12:57.457Z,12.44
2023-02-02T05:14:00.523Z,11.88
2023-02-02T05:15:05.053Z,12.05
2023-02-02T05:16:08.319Z,12.02
2023-02-02T05:17:11.255Z,11.83
2023-02-02T05:18:14.381Z,12.39
2023-02-02T05:19:17.440Z,12.51
2023-02-02T05:20:20.514Z,12.66
2023-02-02T05:21:23.882Z,12.79
2023-02-02T05:22:27.043Z,12.19
2023-02-02T05:23:30.510Z,12.76
2023-02-02T05:24:33.868Z,12.84
2023-02-02T05:25:36.932Z,13.48
2023-02-02T05:26:40.021Z,14.52
2023-02-02T05:27:44.139Z,16.21
2023-02-02T05:28:47.899Z,14.21
2023-02-02T05:29:50.992Z,15.92
2023-02-02T05:30:53.974Z,15.04
2023-02-02T05:31:57.713Z,14.14
2023-02-02T05:33:00.678Z,13.93
2023-02-02T05:34:04.464Z,14.53
2023-02-02T05:35:08.768Z,14.17
2023-02-02T05:36:12.148Z,14.57
2023-02-02T05:37:15.298Z,14.81
2023-02-02T05:38:18.353Z,15.28
2023-02-02T05:39:21.413Z,14.30
2023-02-02T05:40:25.183Z,13.56
2023-02-02T05:41:28.122Z,13.44
2023-02-02T05:42:31.166Z,12.70
2023-02-02T05:43:34.330Z,12.76
2023-02-02T05:44:37.291Z,12.56
2023-02-02T05:45:40.316Z,12.53
2023-02-02T05:46:44.715Z,11.90
2023-02-02T05:47:47.944Z,12.06
2023-02-02T05:48:51.009Z,11.31
2023-02-02T05:49:54.233Z,12.03
2023-02-02T05:51:03.695Z,11.07
2023-02-02T05:52:07.147Z,11.62
2023-02-02T05:53:12.793Z,11.46
2023-02-02T05:54:17.667Z,12.76
2023-02-02T05:55:20.727Z,11.89
2023-02-02T05:56:23.794Z,11.16
2023-02-02T05:57:27.508Z,11.99
2023-02-02T05:58:30.445Z,10.93
2023-02-02T05:59:33.374Z,11.72
2023-02-02T06:00:36.578Z,11.49
2023-02-02T06:01:39.527Z,11.17
2023-02-02T06:02:42.531Z,10.77
2023-02-02T06:03:45.737Z,11.46
2023-02-02T06:04:48.786Z,10.99
2023-02-02T06:05:52.253Z,12.30
2023-02-02T06:06:55.350Z,11.54
2023-02-02T06:07:58.316Z,11.88
2023-02-02T06:09:02.116Z,11.31
2023-02-02T06:10:06.110Z,11.24
2023-02-02T06:11:13.750Z,12.55
2023-02-02T06:12:18.413Z,12.39
2023-02-02T06:13:21.999Z,11.38
2023-02-02T06:14:24.948Z,11.04
2023-02-02T06:15:28.989Z,11.93
2023-02-02T06:16:32.015Z,11.90
2023-02-02T06:17:34.946Z,11.22
2023-02-02T06:18:38.183Z,11.45
2023-02-02T06:19:41.132Z,10.07
2023-02-02T06:20:46.159Z,11.25
2023-02-02T06:21:49.271Z,11.41
2023-02-02T06:22:52.230Z,11.99
2023-02-02T06:23:55.162Z,11.12
2023-02-02T06:24:58.293Z,11.91
2023-02-02T06:26:02.943Z,10.83
2023-02-02T06:27:05.917Z,11.93
2023-02-02T06:28:08.969Z,12.88
2023-02-02T06:29:13.028Z,11.81
2023-02-02T06:30:16.531Z,11.52
2023-02-02T06:31:20.610Z,11.74
2023-02-02T06:32:23.675Z,12.12
2023-02-02T06:33:26.623Z,11.40
2023-02-02T06:34:29.564Z,11.98
2023-02-02T06:35:32.908Z,11.61
2023-02-02T06:36:36.275Z,11.71
2023-02-02T06:37:39.354Z,11.11
2023-02-02T06:38:42.410Z,11.66
2023-02-02T06:39:45.445Z,11.84
2023-02-02T06:40:48.400Z,12.38
2023-02-02T06:41:51.544Z,11.16
2023-02-02T06:43:02.257Z,11.56
2023-02-02T06:44:05.236Z,11.82
2023-02-02T06:45:09.049Z,11.39
2023-02-02T06:46:12.740Z,12.66
2023-02-02T06:47:15.689Z,11.75
2023-02-02T06:48:18.869Z,11.45
2023-02-02T06:49:21.975Z,12.64
2023-02-02T06:50:24.935Z,11.63
2023-02-02T06:51:27.864Z,12.80
2023-02-02T06:52:30.924Z,11.51
2023-02-02T06:53:34.673Z,12.36
2023-02-02T06:54:37.656Z,13.43
2023-02-02T06:55:40.596Z,12.11
2023-02-02T06:56:43.858Z,12.73
2023-02-02T06:57:47.027Z,12.59
2023-02-02T06:58:50.108Z,15.66
2023-02-02T06:59:53.117Z,13.83
2023-02-02T07:01:05.206Z,11.76
2023-02-02T07:02:12.615Z,11.27
2023-02-02T07:03:16.199Z,11.86
2023-02-02T07:04:19.472Z,12.19
2023-02-02T07:05:25.951Z,11.57
2023-02-02T07:06:29.916Z,11.91
2023-02-02T07:07:34.105Z,13.31
2023-02-02T07:08:37.084Z,13.08
2023-02-02T07:09:40.047Z,12.48
2023-02-02T07:11:13.855Z,11.73
2023-02-02T07:11:48.973Z,13.69
2023-02-02T07:12:53.932Z,12.38
2023-02-02T07:13:57.006Z,11.73
2023-02-02T07:15:00.064Z,11.57
2023-02-02T07:16:05.590Z,11.84
2023-02-02T07:17:08.693Z,13.21
2023-02-02T07:18:11.927Z,12.35
2023-02-02T07:19:15.050Z,12.89
2023-02-02T07:20:18.668Z,12.59
2023-02-02T07:21:23.546Z,12.69
2023-02-02T07:22:26.512Z,12.37
2023-02-02T07:23:29.923Z,12.30
2023-02-02T07:24:32.935Z,14.29
2023-02-02T07:25:35.857Z,11.88
2023-02-02T07:26:39.055Z,12.70
2023-02-02T07:27:42.083Z,12.61
2023-02-02T07:28:45.630Z,12.09
2023-02-02T07:29:48.599Z,11.90
2023-02-02T07:30:51.853Z,12.31
2023-02-02T07:31:55.060Z,12.17
2023-02-02T07:32:58.559Z,12.35
2023-02-02T07:34:01.649Z,11.34
2023-02-02T07:35:05.443Z,13.33
2023-02-02T07:36:09.081Z,12.25
2023-02-02T07:37:12.142Z,11.93
2023-02-02T07:38:15.289Z,12.35
2023-02-02T11:07:26.019Z,10.47
2023-02-02T11:08:38.659Z,10.30
2023-02-02T11:09:42.331Z,10.30
2023-02-02T11:10:47.062Z,10.74
2023-02-02T11:11:53.684Z,10.29
2023-02-02T11:13:02.047Z,9.02
2023-02-02T11:14:11.267Z,8.92
2023-02-02T11:16:43.981Z,8.06
2023-02-02T11:17:46.225Z,7.70
2023-02-02T11:18:49.424Z,8.61
2023-02-02T11:19:54.949Z,8.39
2023-02-02T11:20:57.842Z,7.97
2023-02-02T11:22:02.834Z,9.61
2023-02-02T11:23:07.182Z,10.60
2023-02-02T11:24:28.772Z,8.86
2023-02-02T11:25:34.556Z,9.57
2023-02-02T11:26:54.758Z,9.34
2023-02-02T11:27:57.879Z,9.63
2023-02-02T11:29:01.362Z,10.53
2023-02-02T11:30:28.965Z,9.54
2023-02-02T11:31:36.885Z,9.61
2023-02-02T11:32:39.865Z,10.21
2023-02-02T11:33:42.812Z,9.48
2023-02-02T11:34:46.197Z,10.57
2023-02-02T11:35:55.926Z,10.14
2023-02-02T11:37:21.574Z,10.05
2023-02-02T11:38:24.843Z,8.76
2023-02-02T11:39:28.275Z,9.28
2023-02-02T11:40:43.348Z,9.79
2023-02-02T11:41:46.760Z,9.92
2023-02-02T11:42:51.314Z,10.48
2023-02-02T11:43:56.056Z,10.19
2023-02-02T11:44:59.557Z,10.42
2023-02-02T11:46:05.762Z,9.19
2023-02-02T11:47:12.323Z,9.72
2023-02-02T11:48:21.485Z,9.63
2023-02-02T11:49:26.172Z,10.40
2023-02-02T11:50:29.256Z,10.11
2023-02-02T11:51:32.500Z,9.60
2023-02-02T11:52:36.757Z,9.86
2023-02-02T11:53:46.299Z,9.28
2023-02-02T11:54:51.828Z,9.72
2023-02-02T11:55:57.481Z,9.75
2023-02-02T11:57:03.701Z,10.53
2023-02-02T11:58:28.036Z,9.23
2023-02-02T11:59:34.666Z,9.56
2023-02-02T12:00:52.195Z,10.40
2023-02-02T12:02:25.885Z,10.54
2023-02-02T12:03:35.002Z,11.44
2023-02-02T12:04:38.631Z,10.97
2023-02-02T12:05:43.545Z,11.01
2023-02-02T12:06:46.640Z,10.19
2023-02-02T12:07:49.784Z,11.10
2023-02-02T12:08:58.561Z,9.35
2023-02-02T12:10:20.202Z,11.71
2023-02-02T12:11:36.026Z,10.18
2023-02-02T12:13:03.614Z,9.39
2023-02-02T12:14:25.112Z,8.52
2023-02-02T12:15:43.559Z,8.97
2023-02-02T12:17:16.063Z,9.00
2023-02-02T12:18:40.210Z,9.55
2023-02-02T12:20:20.117Z,9.28
2023-02-02T12:21:45.063Z,9.13
2023-02-02T12:23:00.474Z,9.28
2023-02-02T12:24:31.044Z,9.95
2023-02-02T12:25:57.215Z,9.53
2023-02-02T12:27:15.815Z,9.49
2023-02-02T12:28:39.023Z,9.62
2023-02-02T12:29:57.425Z,9.54
2023-02-02T12:31:28.433Z,9.61
2023-02-02T12:34:12.794Z,9.12
2023-02-02T12:35:25.043Z,9.82
2023-02-02T12:36:43.543Z,10.16
2023-02-02T12:38:12.802Z,9.57
2023-02-02T12:39:29.837Z,8.82
2023-02-02T12:41:01.068Z,8.93
2023-02-02T12:42:30.271Z,8.98
2023-02-02T12:43:49.079Z,7.59
2023-02-02T12:44:58.751Z,8.05
2023-02-02T12:46:23.529Z,8.99
2023-02-02T12:47:55.480Z,8.29
2023-02-02T12:49:18.756Z,9.00
2023-02-02T12:50:57.231Z,10.28
2023-02-02T12:52:24.825Z,12.41
2023-02-02T12:53:47.742Z,9.44
2023-02-02T12:54:59.123Z,8.78
2023-02-02T12:56:18.103Z,6.15
2023-02-02T12:57:47.023Z,6.41
2023-02-02T12:59:05.648Z,6.38
2023-02-02T13:00:28.307Z,7.13
2023-02-02T13:01:51.778Z,7.39
2023-02-02T13:03:19.534Z,7.73
2023-02-02T13:04:37.954Z,7.02
2023-02-02T13:05:47.628Z,6.54
2023-02-02T13:06:56.978Z,6.76
2023-02-02T13:08:21.989Z,7.34
2023-02-02T13:09:59.037Z,6.92
2023-02-02T13:11:05.954Z,7.22
2023-02-02T13:12:11.351Z,8.04
2023-02-02T13:13:24.472Z,7.57
2023-02-02T13:14:31.226Z,7.30
2023-02-02T13:15:36.880Z,7.23
2023-02-02T13:16:45.473Z,8.09
2023-02-02T13:17:57.412Z,9.82
2023-02-02T13:19:06.999Z,8.54
2023-02-02T13:20:33.524Z,8.81
2023-02-02T13:21:38.612Z,8.03
2023-02-02T13:22:44.634Z,8.52
2023-02-02T13:23:53.621Z,8.29
2023-02-02T13:25:01.215Z,9.02
2023-02-02T13:26:12.323Z,9.41
2023-02-02T13:27:19.106Z,8.86
2023-02-02T13:30:04.162Z,11.56
2023-02-02T13:31:16.813Z,10.01
2023-02-02T13:32:26.456Z,12.36
2023-02-02T13:33:32.882Z,10.40
2023-02-02T13:34:45.399Z,15.29
2023-02-02T13:35:54.814Z,17.12
2023-02-02T13:37:04.252Z,15.49
2023-02-02T13:38:19.741Z,14.33
2023-02-02T13:39:26.165Z,12.91
2023-02-02T13:40:43.167Z,11.62
2023-02-02T13:41:49.120Z,11.82
2023-02-02T13:42:58.851Z,16.48
2023-02-02T13:44:08.263Z,19.94
2023-02-02T13:45:21.011Z,24.67
2023-02-02T13:46:30.342Z,23.39
2023-02-02T13:47:42.959Z,22.53
2023-02-02T13:49:09.606Z,18.29
2023-02-02T13:50:16.422Z,18.34
2023-02-02T13:51:50.296Z,14.95
2023-02-02T13:53:22.771Z,13.11
2023-02-02T13:54:45.831Z,13.56
2023-02-02T13:56:14.980Z,12.00
2023-02-02T13:57:33.441Z,13.16
2023-02-02T13:58:52.078Z,13.03
2023-02-02T14:01:58.440Z,12.87
2023-02-02T14:03:05.455Z,13.69
2023-02-02T14:04:12.099Z,13.78
2023-02-02T14:05:34.783Z,11.88
2023-02-02T14:07:06.384Z,11.91
2023-02-02T14:08:21.459Z,11.97
2023-02-02T14:09:30.439Z,10.52
2023-02-02T14:10:39.469Z,11.20
2023-02-02T14:11:47.631Z,10.54
2023-02-02T14:12:51.795Z,10.39
2023-02-02T14:14:34.503Z,10.60
2023-02-02T14:15:40.612Z,9.79
2023-02-02T14:16:47.250Z,9.91
2023-02-02T14:17:53.478Z,10.83
2023-02-02T14:18:58.432Z,9.91
2023-02-02T14:20:03.707Z,9.59
2023-02-02T14:21:06.881Z,9.52
2023-02-02T14:22:13.446Z,9.78
2023-02-02T14:23:53.868Z,10.03
2023-02-02T14:24:56.994Z,9.18
2023-02-02T14:26:09.462Z,9.71
2023-02-02T14:27:19.141Z,9.72
2023-02-02T14:28:43.836Z,9.99
2023-02-02T14:29:50.795Z,10.21
2023-02-02T14:32:33.873Z,11.34
2023-02-02T14:33:41.736Z,11.17
2023-02-02T14:34:45.115Z,11.95
2023-02-02T14:35:52.261Z,11.41
2023-02-02T14:37:17.156Z,12.81
2023-02-02T14:38:23.769Z,12.76
2023-02-02T14:39:33.472Z,12.11
2023-02-02T14:40:46.258Z,12.43
2023-02-02T14:42:27.705Z,12.85
2023-02-02T14:43:48.117Z,11.99
2023-02-02T14:45:14.232Z,12.40
2023-02-02T14:46:26.746Z,12.57
2023-02-02T14:47:41.898Z,11.83
2023-02-02T14:48:50.908Z,11.83
2023-02-02T14:49:57.009Z,11.47
2023-02-02T14:51:02.139Z,11.52
2023-02-02T14:52:05.266Z,12.65
2023-02-02T14:53:23.440Z,12.17
2023-02-02T14:54:36.319Z,10.96
2023-02-02T14:55:52.127Z,10.79
2023-02-02T14:56:58.610Z,11.15
2023-02-02T14:58:04.478Z,10.81
2023-02-02T14:59:11.510Z,11.73
2023-02-02T15:00:21.861Z,11.79
2023-02-02T15:01:28.062Z,12.12
2023-02-02T15:02:34.713Z,14.39
2023-02-02T15:03:47.623Z,14.54
2023-02-02T15:04:50.601Z,15.62
2023-02-02T15:06:02.860Z,17.21
2023-02-02T15:07:28.501Z,18.67
2023-02-02T15:08:31.607Z,18.11
2023-02-02T15:09:38.307Z,20.25
2023-02-02T15:10:56.825Z,17.87
2023-02-02T15:12:03.607Z,17.66
2023-02-02T15:13:10.213Z,14.81
2023-02-02T15:14:15.712Z,14.60
2023-02-02T15:15:27.406Z,12.64
2023-02-02T15:16:32.903Z,12.77
2023-02-02T15:17:44.446Z,13.21
2023-02-02T15:18:51.000Z,13.13
2023-02-02T15:20:14.130Z,13.07
2023-02-02T15:21:23.364Z,11.71
2023-02-02T15:22:38.806Z,10.94
2023-02-02T15:23:44.474Z,11.46
2023-02-02T15:24:48.029Z,10.97
2023-02-02T15:27:11.755Z,10.69
2023-02-02T15:28:30.059Z,10.33
2023-02-02T15:29:44.692Z,10.56
2023-02-02T15:30:57.396Z,11.21
2023-02-02T15:32:01.108Z,11.44
2023-02-02T15:33:13.481Z,11.31
2023-02-02T15:34:37.079Z,10.56
2023-02-02T15:35:40.868Z,11.78
2023-02-02T15:36:47.792Z,11.47
2023-02-02T15:37:54.338Z,11.45
2023-02-02T15:40:23.980Z,12.95
2023-02-02T15:41:31.767Z,13.18
2023-02-02T15:42:53.425Z,12.13
2023-02-02T15:43:56.388Z,12.47
2023-02-02T15:44:59.510Z,13.06
2023-02-02T15:46:06.189Z,13.81
2023-02-02T15:47:12.900Z,14.11
2023-02-02T15:48:29.746Z,14.41
2023-02-02T15:49:36.174Z,14.88
2023-02-02T15:50:44.766Z,15.19
2023-02-02T15:51:54.245Z,13.86
2023-02-02T15:52:57.207Z,14.15
2023-02-02T15:54:00.167Z,13.46
2023-02-02T15:55:06.786Z,12.29
2023-02-02T15:56:25.858Z,11.29
2023-02-02T15:57:37.955Z,10.74
2023-02-02T15:58:42.745Z,11.30
2023-02-02T15:59:45.821Z,11.44
2023-02-02T16:00:58.472Z,12.37
2023-02-02T16:02:07.962Z,10.87
2023-02-02T16:03:14.576Z,10.93
2023-02-02T16:04:28.387Z,10.19
2023-02-02T16:05:37.890Z,10.86
2023-02-02T16:06:42.408Z,11.04
2023-02-02T16:07:50.659Z,10.28
2023-02-02T16:08:50.333Z,10.58
2023-02-02T16:09:53.368Z,9.58
2023-02-02T16:11:17.823Z,8.76
2023-02-02T16:12:23.131Z,8.94
2023-02-02T16:13:28.393Z,9.90
2023-02-02T16:14:35.553Z,10.02
2023-02-02T16:15:38.532Z,9.54
2023-02-02T16:16:41.992Z,9.00
2023-02-02T16:17:45.167Z,9.03
2023-02-02T16:18:49.910Z,8.79
2023-02-02T16:20:08.656Z,8.84
2023-02-02T16:22:26.410Z,7.93
2023-02-02T16:23:32.931Z,8.24
2023-02-02T16:24:47.663Z,7.03
2023-02-02T16:25:53.924Z,7.28
2023-02-02T16:26:59.969Z,7.79
2023-02-02T16:28:04.113Z,8.06
2023-02-02T16:29:10.819Z,7.82
2023-02-02T16:31:30.025Z,7.00
2023-02-02T16:32:38.278Z,7.35
2023-02-02T16:33:43.301Z,7.48
2023-02-02T16:34:47.130Z,7.28
2023-02-02T16:35:50.162Z,7.58
2023-02-02T16:37:26.759Z,7.07
2023-02-02T16:38:33.376Z,7.16
2023-02-02T16:39:36.484Z,7.11
2023-02-02T16:40:39.897Z,7.28
2023-02-02T16:41:44.983Z,6.35
2023-02-02T16:43:05.954Z,7.48
2023-02-02T16:45:37.315Z,7.02
2023-02-02T16:46:47.285Z,8.63
2023-02-02T19:59:34.914Z,14.54
2023-02-02T20:00:39.984Z,15.16
2023-02-02T20:01:45.008Z,14.16
2023-02-02T20:03:00.076Z,15.19
2023-02-02T20:04:06.405Z,13.96
2023-02-02T20:05:13.106Z,14.94
2023-02-02T20:06:25.567Z,14.26
2023-02-02T20:07:29.459Z,14.72
2023-02-02T20:08:40.775Z,14.80
2023-02-02T20:09:43.724Z,14.23
2023-02-02T20:10:47.417Z,15.21
2023-02-02T20:11:55.343Z,14.00
2023-02-02T20:12:58.414Z,14.99
2023-02-02T20:15:36.156Z,13.98
2023-02-02T20:16:42.004Z,13.71
2023-02-02T20:17:44.955Z,13.62
2023-02-02T20:18:52.405Z,14.51
2023-02-02T20:19:55.687Z,13.64
2023-02-02T20:20:58.870Z,13.50
2023-02-02T20:22:02.520Z,14.12
2023-02-02T20:23:21.260Z,13.32
2023-02-02T20:24:27.520Z,14.25
2023-02-02T20:25:31.753Z,13.71
2023-02-02T20:26:38.723Z,14.04
2023-02-02T20:27:43.767Z,13.21
2023-02-02T20:28:47.874Z,13.42
2023-02-02T20:29:52.667Z,13.24
2023-02-02T20:30:55.813Z,14.39
2023-02-02T20:31:58.794Z,13.50
2023-02-02T20:33:03.194Z,12.96
2023-02-02T20:34:28.303Z,12.86
2023-02-02T20:35:42.961Z,12.44
2023-02-02T20:36:48.072Z,12.56
2023-02-02T20:37:51.557Z,13.17
2023-02-02T20:38:54.754Z,12.26
2023-02-02T20:40:01.028Z,12.74
2023-02-02T20:41:05.280Z,12.44
2023-02-02T20:42:08.414Z,12.54
2023-02-02T20:43:11.476Z,12.51
2023-02-02T20:44:14.436Z,13.39
2023-02-02T20:45:18.384Z,12.71
2023-02-02T20:46:21.925Z,12.85
2023-02-02T20:47:25.109Z,14.01
2023-02-02T20:48:28.640Z,12.63
2023-02-02T20:49:32.051Z,12.51
2023-02-02T20:50:35.741Z,13.25
2023-02-02T20:51:40.171Z,13.73
2023-02-02T20:52:43.579Z,17.30
2023-02-02T20:53:46.509Z,15.67
2023-02-02T20:54:51.003Z,14.98
2023-02-02T20:55:55.992Z,14.00
2023-02-02T20:56:59.417Z,13.76
2023-02-02T20:58:06.086Z,13.31
2023-02-02T20:59:09.062Z,13.90
2023-02-02T21:00:16.611Z,13.46
2023-02-02T21:01:23.087Z,13.59
2023-02-02T21:02:27.505Z,12.61
2023-02-02T21:03:32.369Z,13.91
2023-02-02T21:04:36.400Z,12.55
2023-02-02T21:05:40.268Z,13.35
2023-02-02T21:06:47.185Z,12.64
2023-02-02T21:07:52.963Z,13.73
2023-02-02T21:08:56.790Z,13.64
2023-02-02T21:10:00.650Z,12.97
2023-02-02T21:11:04.830Z,13.58
2023-02-02T21:12:08.287Z,13.15
2023-02-02T21:13:11.798Z,12.99
2023-02-02T21:14:18.027Z,12.89
2023-02-02T21:15:21.763Z,12.86
2023-02-02T21:16:26.253Z,12.82
2023-02-02T21:17:29.898Z,13.45
2023-02-02T21:18:33.755Z,12.90
2023-02-02T21:19:37.447Z,12.89
2023-02-02T21:20:41.038Z,13.13
2023-02-02T21:21:44.247Z,12.59
2023-02-02T21:22:47.812Z,12.61
2023-02-02T21:23:51.610Z,13.28
2023-02-02T21:24:54.874Z,14.25
2023-02-02T21:25:58.075Z,13.65
2023-02-02T21:27:03.102Z,13.32
2023-02-02T21:28:06.371Z,13.03
2023-02-02T21:29:10.213Z,14.44
2023-02-02T21:30:13.820Z,13.60
2023-02-02T21:31:18.080Z,13.50
2023-02-02T21:32:21.226Z,13.09
2023-02-02T21:33:24.277Z,12.53
2023-02-02T21:34:28.210Z,13.01
2023-02-02T21:35:31.908Z,12.09
2023-02-02T21:36:38.474Z,12.74
2023-02-02T21:37:43.495Z,14.32
2023-02-02T21:38:46.694Z,14.27